createdAt,value
2017-10-18T00:02:13.256Z,87.87
2017-10-18T00:04:42.494Z,87.83
2017-10-18T00:07:11.708Z,87.81
2017-10-18T00:09:40.972Z,87.68
2017-10-18T00:12:10.184Z,87.79
2017-10-18T00:14:40.176Z,87.78
2017-10-18T00:17:09.380Z,87.58
2017-10-18T00:19:38.589Z,87.73
2017-10-18T00:22:07.827Z,87.86
2017-10-18T00:24:37.033Z,87.72
2017-10-18T00:27:06.289Z,87.48
2017-10-18T00:29:35.613Z,87.35
2017-10-18T00:32:04.853Z,87.26
2017-10-18T00:34:34.060Z,87.46
2017-10-18T00:37:03.460Z,87.59
2017-10-18T00:39:32.690Z,87.73
2017-10-18T00:42:02.710Z,87.80
2017-10-18T00:44:31.921Z,87.80
2017-10-18T00:47:01.950Z,87.64
2017-10-18T00:49:32.048Z,87.44
2017-10-18T00:52:02.034Z,87.42
2017-10-18T00:54:32.764Z,87.69
2017-10-18T00:57:01.973Z,87.62
2017-10-18T00:59:31.188Z,87.50
2017-10-18T01:02:01.209Z,87.55
2017-10-18T01:04:31.242Z,87.58
2017-10-18T01:07:00.461Z,87.37
2017-10-18T01:09:29.690Z,87.27
2017-10-18T01:11:58.923Z,87.38
2017-10-18T01:14:29.038Z,87.55
2017-10-18T01:16:59.019Z,87.13
2017-10-18T01:19:28.224Z,86.83
2017-10-18T01:21:57.500Z,87.01
2017-10-18T01:24:26.807Z,87.29
2017-10-18T01:26:56.044Z,87.64
2017-10-18T01:29:25.999Z,87.90
2017-10-18T01:31:55.232Z,88.25
2017-10-18T01:34:24.439Z,87.84
2017-10-18T01:36:53.789Z,87.69
2017-10-18T01:39:23.015Z,87.78
2017-10-18T01:41:52.332Z,87.83
2017-10-18T01:44:21.617Z,88.14
2017-10-18T01:46:50.815Z,88.38
2017-10-18T01:49:20.048Z,88.80
2017-10-18T01:51:50.019Z,88.55
2017-10-18T01:54:19.253Z,88.46
2017-10-18T01:56:48.456Z,88.82
2017-10-18T01:59:18.452Z,89.51
2017-10-18T02:01:47.665Z,89.07
2017-10-18T02:04:17.659Z,88.66
2017-10-18T02:06:46.869Z,88.86
2017-10-18T02:09:16.088Z,88.99
2017-10-18T02:11:46.059Z,88.82
2017-10-18T02:14:15.283Z,88.91
2017-10-18T02:16:44.484Z,88.96
2017-10-18T02:19:14.475Z,89.03
2017-10-18T02:21:45.189Z,88.87
2017-10-18T02:24:14.415Z,88.92
2017-10-18T02:26:43.620Z,89.03
2017-10-18T02:29:12.848Z,89.20
2017-10-18T02:31:42.099Z,89.50
2017-10-18T02:34:11.308Z,89.96
2017-10-18T02:36:40.533Z,89.94
2017-10-18T02:39:10.548Z,90.08
2017-10-18T02:41:40.517Z,90.25
2017-10-18T02:44:09.792Z,90.30
2017-10-18T02:46:39.007Z,90.32
2017-10-18T02:49:08.377Z,90.43
2017-10-18T02:51:37.767Z,90.47
2017-10-18T02:54:06.985Z,90.47
2017-10-18T02:56:36.232Z,90.54
2017-10-18T02:59:05.471Z,90.48
2017-10-18T03:01:34.726Z,90.16
2017-10-18T03:04:03.943Z,89.96
2017-10-18T03:06:33.932Z,89.63
2017-10-18T03:09:03.129Z,89.16
2017-10-18T03:11:32.368Z,88.80
2017-10-18T03:14:01.573Z,88.64
2017-10-18T03:16:31.013Z,87.92
2017-10-18T03:19:00.214Z,88.13
2017-10-18T03:21:29.432Z,88.30
2017-10-18T03:24:00.262Z,88.48
2017-10-18T03:26:29.587Z,88.45
2017-10-18T03:28:59.615Z,88.47
2017-10-18T03:31:28.848Z,88.20
2017-10-18T03:33:58.095Z,87.89
2017-10-18T03:36:28.124Z,87.95
2017-10-18T03:38:58.158Z,87.88
2017-10-18T03:41:27.363Z,88.08
2017-10-18T03:43:56.600Z,88.27
2017-10-18T03:46:25.815Z,88.42
2017-10-18T03:48:55.053Z,88.42
2017-10-18T03:51:24.258Z,88.39
2017-10-18T03:53:53.799Z,88.16
2017-10-18T03:56:23.007Z,87.88
2017-10-18T03:58:52.217Z,87.86
2017-10-18T04:01:22.307Z,88.00
2017-10-18T04:03:51.636Z,88.16
2017-10-18T04:06:21.643Z,88.13
2017-10-18T04:08:50.871Z,88.09
2017-10-18T04:11:20.688Z,87.95
2017-10-18T04:13:49.897Z,87.82
2017-10-18T04:16:19.123Z,87.57
2017-10-18T04:18:48.330Z,87.42
2017-10-18T04:21:17.564Z,87.59
2017-10-18T04:23:46.771Z,87.81
2017-10-18T04:26:15.972Z,87.80
2017-10-18T04:28:45.206Z,87.80
2017-10-18T04:31:14.413Z,87.73
2017-10-18T04:33:43.630Z,87.07
2017-10-18T04:36:12.859Z,87.39
2017-10-18T04:38:42.100Z,88.13
2017-10-18T04:41:11.446Z,88.34
2017-10-18T04:43:40.687Z,88.19
2017-10-18T04:46:10.184Z,88.15
2017-10-18T04:48:39.507Z,88.22
2017-10-18T04:51:08.714Z,88.03
2017-10-18T04:53:37.954Z,88.00
2017-10-18T04:56:07.167Z,87.81
2017-10-18T04:58:36.415Z,87.61
2017-10-18T05:01:06.528Z,87.56
2017-10-18T05:03:36.552Z,86.66
2017-10-18T05:06:05.778Z,87.78
2017-10-18T05:08:35.009Z,87.60
2017-10-18T05:11:04.259Z,87.30
2017-10-18T05:13:34.219Z,87.43
2017-10-18T05:16:03.447Z,87.29
2017-10-18T05:18:34.163Z,88.44
2017-10-18T05:21:03.401Z,88.59
2017-10-18T05:23:33.466Z,88.58
2017-10-18T05:26:02.747Z,88.46
2017-10-18T05:28:31.986Z,88.31
2017-10-18T05:31:01.217Z,88.32
2017-10-18T05:33:31.363Z,88.24
2017-10-18T05:36:00.591Z,88.07
2017-10-18T05:38:29.954Z,88.28
2017-10-18T05:40:59.196Z,88.53
2017-10-18T05:43:28.432Z,88.81
2017-10-18T05:45:58.415Z,88.55
2017-10-18T05:48:27.666Z,88.68
2017-10-18T05:50:56.889Z,88.98
2017-10-18T05:53:26.099Z,89.22
2017-10-18T05:55:55.412Z,89.90
2017-10-18T05:58:24.620Z,91.22
2017-10-18T06:00:53.846Z,92.03
2017-10-18T06:03:23.066Z,92.48
2017-10-18T06:05:58.119Z,92.45
2017-10-18T06:08:27.324Z,92.54
2017-10-18T06:10:56.567Z,93.33
2017-10-18T06:13:26.551Z,93.35
2017-10-18T06:15:55.847Z,93.40
2017-10-18T06:18:26.071Z,93.33
2017-10-18T06:20:55.319Z,92.75
2017-10-18T06:23:24.566Z,93.14
2017-10-18T06:25:53.791Z,93.16
2017-10-18T06:28:23.988Z,93.44
2017-10-18T06:30:53.475Z,93.86
2017-10-18T06:33:22.726Z,94.25
2017-10-18T06:35:52.692Z,94.51
2017-10-18T06:38:21.934Z,94.72
2017-10-18T06:40:51.895Z,95.06
2017-10-18T06:43:21.140Z,94.88
2017-10-18T06:45:50.347Z,95.05
2017-10-18T06:48:20.335Z,95.29
2017-10-18T06:50:49.583Z,94.89
2017-10-18T06:53:19.535Z,94.75
2017-10-18T06:55:48.783Z,94.67
2017-10-18T06:58:18.042Z,94.92
2017-10-18T07:00:48.811Z,94.50
2017-10-18T07:03:18.025Z,94.46
2017-10-18T07:05:47.265Z,94.48
2017-10-18T07:08:16.480Z,94.41
2017-10-18T07:10:46.476Z,94.46
2017-10-18T07:13:15.701Z,94.66
2017-10-18T07:15:45.862Z,94.84
2017-10-18T07:18:15.061Z,94.42
2017-10-18T07:20:44.303Z,94.56
2017-10-18T07:23:13.531Z,94.27
2017-10-18T07:25:43.552Z,94.32
2017-10-18T07:28:12.784Z,94.59
2017-10-18T07:30:42.018Z,94.19
2017-10-18T07:33:11.236Z,93.86
2017-10-18T07:35:41.226Z,93.38
2017-10-18T07:38:11.959Z,93.60
2017-10-18T07:40:41.170Z,93.57
2017-10-18T07:43:11.167Z,93.54
2017-10-18T07:45:40.381Z,93.16
2017-10-18T07:48:10.364Z,92.73
2017-10-18T07:50:39.732Z,92.06
2017-10-18T07:53:08.983Z,90.85
2017-10-18T07:55:38.939Z,90.46
2017-10-18T07:58:08.287Z,91.43
2017-10-18T08:00:37.755Z,91.21
2017-10-18T08:03:07.847Z,91.34
2017-10-18T08:05:37.815Z,90.81
2017-10-18T08:08:07.038Z,92.13
2017-10-18T08:10:36.306Z,92.61
2017-10-18T08:13:05.538Z,92.71
2017-10-18T08:15:34.776Z,92.99
2017-10-18T08:18:04.179Z,92.98
2017-10-18T08:20:33.427Z,92.72
2017-10-18T08:23:02.651Z,93.07
2017-10-18T08:25:32.071Z,93.10
2017-10-18T08:28:01.284Z,93.35
2017-10-18T08:30:30.527Z,93.09
2017-10-18T08:33:00.584Z,92.25
2017-10-18T08:35:29.819Z,92.01
2017-10-18T08:37:59.156Z,91.72
2017-10-18T08:40:29.186Z,91.41
2017-10-18T08:42:58.437Z,91.91
2017-10-18T08:45:27.677Z,91.99
2017-10-18T08:47:56.935Z,91.90
2017-10-18T08:50:26.139Z,91.91
2017-10-18T08:52:55.366Z,91.90
2017-10-18T08:55:25.349Z,91.84
2017-10-18T08:57:56.093Z,91.05
2017-10-18T09:00:25.294Z,90.07
2017-10-18T09:02:54.807Z,89.80
2017-10-18T09:05:24.788Z,89.61
2017-10-18T09:07:54.060Z,89.42
2017-10-18T09:10:23.275Z,89.21
2017-10-18T09:12:52.531Z,89.39
2017-10-18T09:15:22.520Z,88.57
2017-10-18T09:17:51.786Z,88.07
2017-10-18T09:20:21.048Z,88.78
2017-10-18T09:22:51.034Z,88.36
2017-10-18T09:25:20.268Z,88.03
2017-10-18T09:27:49.479Z,87.98
2017-10-18T09:30:18.690Z,87.70
2017-10-18T09:32:47.919Z,87.39
2017-10-18T09:35:17.170Z,87.84
2017-10-18T09:37:46.391Z,87.46
2017-10-18T09:40:15.597Z,86.86
2017-10-18T09:42:44.844Z,85.94
2017-10-18T09:45:14.060Z,86.16
2017-10-18T09:47:43.292Z,85.88
2017-10-18T09:50:12.508Z,85.93
2017-10-18T09:52:41.840Z,85.96
2017-10-18T09:55:11.048Z,85.13
2017-10-18T09:57:40.300Z,85.56
2017-10-18T10:00:09.536Z,85.43
2017-10-18T10:02:38.776Z,85.45
2017-10-18T10:05:07.992Z,84.97
2017-10-18T10:07:37.275Z,83.80
2017-10-18T10:10:06.589Z,83.49
2017-10-18T10:12:36.047Z,83.53
2017-10-18T10:15:05.283Z,82.83
2017-10-18T10:17:34.499Z,82.56
2017-10-18T10:20:03.934Z,82.79
2017-10-18T10:22:33.150Z,82.86
2017-10-18T10:25:02.385Z,82.75
2017-10-18T10:27:31.599Z,81.94
2017-10-18T10:30:00.812Z,81.53
2017-10-18T10:32:30.797Z,81.38
2017-10-18T10:35:00.006Z,81.20
2017-10-18T10:37:29.271Z,81.51
2017-10-18T10:39:58.484Z,80.66
2017-10-18T10:42:28.514Z,80.17
2017-10-18T10:44:57.745Z,79.50
2017-10-18T10:47:27.752Z,78.64
2017-10-18T10:49:57.901Z,78.02
2017-10-18T10:52:27.132Z,77.54
2017-10-18T10:54:56.354Z,77.79
2017-10-18T10:57:26.359Z,76.85
2017-10-18T10:59:55.587Z,77.63
2017-10-18T11:02:24.800Z,75.89
2017-10-18T11:04:54.022Z,74.71
2017-10-18T11:07:23.348Z,75.15
2017-10-18T11:09:52.581Z,73.49
2017-10-18T11:12:22.112Z,74.37
2017-10-18T11:14:51.349Z,74.65
2017-10-18T11:17:20.556Z,74.65
2017-10-18T11:19:50.792Z,75.62
2017-10-18T11:22:20.895Z,75.00
2017-10-18T11:24:50.280Z,74.89
2017-10-18T11:27:19.535Z,73.66
2017-10-18T11:29:48.843Z,74.02
2017-10-18T11:32:18.088Z,73.94
2017-10-18T11:34:48.919Z,73.25
2017-10-18T11:37:18.415Z,73.61
2017-10-18T11:39:47.627Z,73.30
2017-10-18T11:42:16.876Z,72.82
2017-10-18T11:44:46.111Z,72.37
2017-10-18T11:47:15.502Z,73.01
2017-10-18T11:49:44.742Z,72.58
2017-10-18T11:52:14.744Z,71.66
2017-10-18T11:54:44.736Z,72.05
2017-10-18T11:57:14.035Z,72.43
2017-10-18T11:59:43.304Z,72.04
2017-10-18T12:02:12.542Z,72.09
2017-10-18T12:04:41.729Z,71.24
2017-10-18T12:07:10.964Z,71.36
2017-10-18T12:09:40.944Z,71.08
2017-10-18T12:12:10.358Z,71.29
2017-10-18T12:14:41.132Z,71.97
2017-10-18T12:17:10.377Z,69.90
2017-10-18T12:19:39.672Z,69.79
2017-10-18T12:22:08.899Z,69.57
2017-10-18T12:24:38.132Z,69.10
2017-10-18T12:27:07.436Z,69.18
2017-10-18T12:29:36.669Z,68.59
2017-10-18T12:32:05.945Z,68.34
2017-10-18T12:34:35.172Z,68.76
2017-10-18T12:37:04.463Z,67.89
2017-10-18T12:39:33.692Z,67.83
2017-10-18T12:42:02.953Z,67.82
2017-10-18T12:44:32.448Z,67.11
2017-10-18T12:47:02.356Z,66.43
2017-10-18T12:49:31.591Z,65.84
2017-10-18T12:52:01.096Z,64.09
2017-10-18T12:54:30.300Z,64.09
2017-10-18T12:57:00.300Z,63.30
2017-10-18T12:59:29.495Z,63.39
2017-10-18T13:01:58.738Z,63.83
2017-10-18T13:04:27.975Z,63.29
2017-10-18T13:06:57.208Z,63.53
2017-10-18T13:09:27.200Z,64.29
2017-10-18T13:11:56.415Z,64.78
2017-10-18T13:14:25.835Z,63.03
2017-10-18T13:16:55.072Z,63.32
2017-10-18T13:19:24.299Z,63.69
2017-10-18T13:21:53.560Z,63.36
2017-10-18T13:24:22.773Z,62.57
2017-10-18T13:26:52.005Z,63.14
2017-10-18T13:29:21.251Z,62.56
2017-10-18T13:31:50.478Z,61.36
2017-10-18T13:34:19.724Z,61.52
2017-10-18T13:36:49.712Z,61.23
2017-10-18T13:39:18.948Z,62.06
2017-10-18T13:41:48.164Z,61.41
2017-10-18T13:44:17.417Z,61.70
2017-10-18T13:46:46.929Z,61.25
2017-10-18T13:49:16.897Z,61.62
2017-10-18T13:51:46.128Z,60.58
2017-10-18T13:54:16.939Z,60.37
2017-10-18T13:56:46.243Z,60.20
2017-10-18T13:59:15.477Z,60.64
2017-10-18T14:01:45.456Z,59.59
2017-10-18T14:04:14.679Z,60.05
2017-10-18T14:06:44.651Z,59.73
2017-10-18T14:09:13.906Z,60.64
2017-10-18T14:11:43.886Z,60.13
2017-10-18T14:14:13.111Z,61.03
2017-10-18T14:16:43.112Z,60.82
2017-10-18T14:19:12.333Z,60.30
2017-10-18T14:21:42.342Z,59.92
2017-10-18T14:24:11.556Z,60.56
2017-10-18T14:26:41.545Z,60.87
2017-10-18T14:29:10.736Z,61.00
2017-10-18T14:31:40.242Z,61.21
2017-10-18T14:34:09.464Z,61.19
2017-10-18T14:36:39.641Z,61.51
2017-10-18T14:39:08.865Z,62.02
2017-10-18T14:41:38.890Z,61.25
2017-10-18T14:44:08.190Z,60.88
2017-10-18T14:46:38.231Z,60.96
2017-10-18T14:49:07.464Z,60.72
2017-10-18T14:51:36.876Z,61.09
2017-10-18T14:54:07.624Z,61.33
2017-10-18T14:56:36.847Z,61.42
2017-10-18T14:59:06.847Z,61.16
2017-10-18T15:01:36.840Z,61.02
2017-10-18T15:04:06.073Z,61.47
2017-10-18T15:06:35.299Z,61.87
2017-10-18T15:09:04.538Z,61.57
2017-10-18T15:11:33.759Z,61.68
2017-10-18T15:14:03.775Z,61.35
2017-10-18T15:16:33.852Z,61.83
2017-10-18T15:19:03.108Z,62.32
2017-10-18T15:21:33.211Z,63.02
2017-10-18T15:24:03.187Z,64.08
2017-10-18T15:26:32.445Z,64.50
2017-10-18T15:29:01.706Z,64.29
2017-10-18T15:31:30.937Z,64.73
2017-10-18T15:34:00.191Z,64.60
2017-10-18T15:36:29.416Z,64.72
2017-10-18T15:38:58.619Z,65.17
2017-10-18T15:41:27.879Z,64.37
2017-10-18T15:43:57.119Z,63.96
2017-10-18T15:46:27.190Z,64.01
2017-10-18T15:48:56.460Z,62.80
2017-10-18T15:51:25.770Z,63.50
2017-10-18T15:53:55.064Z,64.21
2017-10-18T15:56:24.303Z,65.26
2017-10-18T15:58:53.572Z,66.32
2017-10-18T16:01:22.805Z,67.61
2017-10-18T16:03:52.034Z,68.74
2017-10-18T16:06:21.282Z,69.63
2017-10-18T16:08:50.517Z,69.62
2017-10-18T16:11:19.747Z,70.43
2017-10-18T16:13:49.099Z,70.46
2017-10-18T16:16:18.339Z,70.53
2017-10-18T16:18:47.556Z,70.64
2017-10-18T16:21:16.768Z,70.65
2017-10-18T16:23:46.007Z,71.05
2017-10-18T16:26:15.984Z,71.29
2017-10-18T16:28:45.217Z,71.60
2017-10-18T16:31:15.211Z,71.76
2017-10-18T16:33:44.452Z,71.73
2017-10-18T16:36:14.490Z,71.77
2017-10-18T16:38:43.724Z,71.97
2017-10-18T16:41:13.000Z,72.08
2017-10-18T16:43:43.171Z,72.48
2017-10-18T16:46:13.132Z,72.79
2017-10-18T16:48:42.389Z,73.02
2017-10-18T16:51:12.381Z,73.61
2017-10-18T16:53:41.599Z,74.11
2017-10-18T16:56:11.625Z,74.27
2017-10-18T16:58:41.931Z,73.75
2017-10-18T17:01:12.099Z,74.11
2017-10-18T17:03:41.297Z,74.55
2017-10-18T17:06:10.541Z,75.11
2017-10-18T17:08:40.559Z,75.82
2017-10-18T17:11:10.691Z,76.25
2017-10-18T17:13:40.771Z,76.49
2017-10-18T17:16:10.123Z,76.99
2017-10-18T17:18:39.377Z,77.05
2017-10-18T17:21:08.605Z,76.65
2017-10-18T17:23:38.632Z,77.03
2017-10-18T17:26:08.611Z,77.20
2017-10-18T17:28:37.879Z,77.43
2017-10-18T17:31:07.098Z,78.21
2017-10-18T17:33:36.403Z,78.41
2017-10-18T17:36:05.804Z,78.78
2017-10-18T17:38:35.023Z,78.33
2017-10-18T17:41:05.146Z,78.82
2017-10-18T17:43:35.151Z,78.90
2017-10-18T17:46:04.432Z,78.32
2017-10-18T17:48:33.665Z,78.35
2017-10-18T17:51:03.698Z,78.53
2017-10-18T17:53:32.983Z,78.40
2017-10-18T17:56:03.011Z,78.47
2017-10-18T17:58:32.224Z,78.49
2017-10-18T18:01:01.561Z,78.43
2017-10-18T18:03:30.784Z,78.36
2017-10-18T18:06:00.772Z,77.91
2017-10-18T18:08:30.038Z,77.82
2017-10-18T18:10:59.384Z,77.80
2017-10-18T18:13:28.636Z,77.68
2017-10-18T18:15:57.968Z,77.15
2017-10-18T18:18:27.239Z,76.80
2017-10-18T18:20:56.435Z,76.07
2017-10-18T18:23:25.723Z,75.76
2017-10-18T18:25:54.935Z,75.48
2017-10-18T18:28:24.187Z,74.97
2017-10-18T18:30:54.535Z,74.79
2017-10-18T18:33:24.538Z,74.63
2017-10-18T18:35:54.519Z,74.57
2017-10-18T18:38:24.087Z,74.38
2017-10-18T18:40:53.338Z,74.32
2017-10-18T18:43:22.548Z,74.36
2017-10-18T18:45:51.896Z,74.35
2017-10-18T18:48:21.151Z,74.31
2017-10-18T18:50:51.143Z,74.20
2017-10-18T18:53:20.344Z,74.18
2017-10-18T18:55:49.601Z,74.15
2017-10-18T18:58:18.839Z,74.09
2017-10-18T19:00:48.173Z,73.86
2017-10-18T19:03:17.383Z,73.85
2017-10-18T19:05:46.617Z,73.85
2017-10-18T19:08:15.880Z,73.68
2017-10-18T19:10:45.205Z,73.59
2017-10-18T19:13:14.478Z,73.70
2017-10-18T19:15:43.703Z,73.53
2017-10-18T19:18:12.956Z,73.37
2017-10-18T19:20:42.944Z,73.45
2017-10-18T19:23:12.217Z,73.55
2017-10-18T19:25:41.617Z,73.59
2017-10-18T19:28:10.866Z,73.64
2017-10-18T19:30:40.089Z,73.64
2017-10-18T19:33:09.356Z,73.73
2017-10-18T19:35:38.576Z,73.59
2017-10-18T19:38:07.803Z,73.50
2017-10-18T19:40:37.056Z,73.74
2017-10-18T19:43:07.036Z,73.58
2017-10-18T19:45:36.408Z,73.61
2017-10-18T19:48:05.634Z,73.59
2017-10-18T19:50:34.908Z,73.60
2017-10-18T19:53:04.143Z,73.73
2017-10-18T19:55:33.380Z,73.76
2017-10-18T19:58:02.611Z,73.84
2017-10-18T20:00:32.010Z,73.81
2017-10-18T20:03:01.228Z,73.71
2017-10-18T20:05:30.479Z,73.78
2017-10-18T20:08:00.481Z,73.80
2017-10-18T20:10:29.820Z,73.88
2017-10-18T20:12:59.063Z,74.09
2017-10-18T20:15:28.306Z,73.94
2017-10-18T20:17:57.713Z,73.93
2017-10-18T20:20:26.915Z,74.20
2017-10-18T20:22:56.160Z,74.34
2017-10-18T20:25:26.155Z,74.53
2017-10-18T20:27:55.591Z,74.53
2017-10-18T20:30:25.645Z,74.67
2017-10-18T20:32:54.889Z,74.65
2017-10-18T20:35:24.115Z,74.87
2017-10-18T20:37:53.362Z,74.64
2017-10-18T20:40:22.607Z,74.77
2017-10-18T20:42:51.943Z,74.75
2017-10-18T20:45:21.175Z,74.94
2017-10-18T20:47:50.421Z,75.22
2017-10-18T20:50:19.709Z,75.03
2017-10-18T20:52:49.721Z,75.26
2017-10-18T20:55:18.983Z,75.19
2017-10-18T20:57:48.322Z,75.17
2017-10-18T21:00:17.686Z,75.42
2017-10-18T21:02:46.931Z,75.29
2017-10-18T21:05:16.186Z,75.29
2017-10-18T21:07:45.380Z,75.38
2017-10-18T21:10:14.599Z,75.37
2017-10-18T21:12:44.604Z,75.53
2017-10-18T21:15:13.816Z,75.42
2017-10-18T21:17:43.869Z,75.62
2017-10-18T21:20:13.119Z,75.56
2017-10-18T21:22:42.499Z,75.48
2017-10-18T21:25:11.728Z,75.49
2017-10-18T21:27:41.727Z,75.67
2017-10-18T21:30:10.954Z,75.68
2017-10-18T21:32:40.940Z,75.72
2017-10-18T21:35:10.160Z,75.61
2017-10-18T21:37:40.153Z,75.88
2017-10-18T21:40:09.375Z,76.04
2017-10-18T21:42:39.372Z,76.16
2017-10-18T21:45:08.625Z,76.05
2017-10-18T21:47:37.824Z,76.24
2017-10-18T21:50:07.067Z,76.33
2017-10-18T21:52:37.043Z,76.34
2017-10-18T21:55:06.268Z,76.58
2017-10-18T21:57:35.486Z,76.72
2017-10-18T22:00:04.958Z,76.59
2017-10-18T22:02:34.183Z,76.75
2017-10-18T22:05:04.216Z,76.53
2017-10-18T22:07:33.436Z,76.71
2017-10-18T22:10:02.651Z,77.06
2017-10-18T22:12:31.876Z,76.98
2017-10-18T22:15:01.080Z,77.04
2017-10-18T22:17:31.097Z,77.13
2017-10-18T22:20:00.590Z,77.34
2017-10-18T22:22:29.827Z,77.44
2017-10-18T22:24:59.053Z,77.30
2017-10-18T22:27:28.284Z,77.25
2017-10-18T22:30:00.535Z,77.34
2017-10-18T22:32:50.624Z,77.44
2017-10-18T22:40:47.602Z,78.12
2017-10-18T22:43:16.814Z,78.15
2017-10-18T22:45:46.076Z,78.39
2017-10-18T22:48:15.273Z,78.58
2017-10-18T22:50:44.485Z,78.73
2017-10-18T22:53:13.726Z,78.99
2017-10-18T22:55:42.928Z,79.47
2017-10-18T22:58:12.912Z,79.73
2017-10-18T23:00:42.199Z,79.71
2017-10-18T23:03:11.619Z,79.68
2017-10-18T23:05:40.900Z,79.74
2017-10-18T23:08:10.248Z,79.67
2017-10-18T23:10:40.252Z,79.70
2017-10-18T23:13:10.961Z,79.52
2017-10-18T23:15:40.189Z,79.56
2017-10-18T23:18:10.189Z,79.54
2017-10-18T23:20:39.475Z,79.77
2017-10-18T23:23:08.701Z,79.35
2017-10-18T23:25:38.689Z,79.40
2017-10-18T23:28:07.904Z,79.40
2017-10-18T23:30:37.253Z,79.38
2017-10-18T23:33:07.321Z,79.32
2017-10-18T23:35:36.567Z,79.22
2017-10-18T23:38:05.798Z,79.16
2017-10-18T23:40:35.031Z,79.28
2017-10-18T23:43:05.020Z,79.30
2017-10-18T23:45:34.281Z,79.21
2017-10-18T23:48:03.528Z,79.07
2017-10-18T23:50:32.729Z,78.97
2017-10-18T23:53:01.957Z,78.82
2017-10-18T23:55:31.204Z,78.99
2017-10-18T23:58:00.414Z,78.97
